Covington, IN (47932)

10:27 PM EDT on August 31, 2015 (GMT -0400)
WX9C | | Change Station
CLOSE
Current Station
Personal Weather Station
Location: Covington, IN
Elevation: 617 ft
Nearby Weather Stations

Elev 617 ft 40.13 °N, 87.38 °W | Updated 14 seconds ago

Clear
Clear
73.0 °F
Feels Like 73.0 °F
N
0.0
Wind Variable Wind from NE
Gusts 0.0 mph

Today
High -- | Low -- °F
--% Chance of Precip.
Yesterday
High -- | Low -- °F
Precip. -- in
7:16 AM 8:23 PM
Waning Gibbous, 92% visible
Pressure 30.05 in
Visibility 7.0 miles
Clouds Clear
Dew Point 71 °F
Humidity 94%
Rainfall 0.00 in
Snow Depth Not available.
UV 0 out of 12
Pollen 10.30 out of 12
Air Quality Not available.
Flu Activity Not available.
METAR KDNV 010215Z AUTO 21004KT 7SM CLR 22/21 A3005 RMK AO2 T02220207
Pressure 30.05 in
Visibility 7.0 miles
Clouds Clear
Dew Point 71 °F
Humidity 94%
Rainfall 0.00 in
Snow Depth Not available.
UV 0 out of 12
Pollen 10.30 out of 12
Air Quality Not available.
Flu Activity Not available.
METAR KDNV 010215Z AUTO 21004KT 7SM CLR 22/21 A3005 RMK AO2 T02220207

10-Day Weather Forecast

×

Almanac

Astronomy

Aug. 31, 2015 Rise Set
Actual Time
Civil Twilight
Nautical Twilight
Astronomical Twilight
Moon
Length of Visible Light
Length of Day
Tomorrow will be .
, % of the Moon is Illuminated

Today's Extremes

State Highs State Lows

Community

WunderPhotos

Upload Photos

1,851,451 photos uploaded!

WunderBlogs® & News

Nearby

Air Quality

  Air Quality AQ Index Pollutant
Not available.

Snow Depth

Station Depth Elevation

Earthquake Activity

City Distance Mag. Time & Date
Minimum magnitude displayed is 2.5.

Coastal Water Temperatures

Place Temperature

Stations

Nearby Weather Stations

Station Location Temp. Windchill Dew Point Humidity Wind Precip. Elev Updated Type